Time;durP1;ratioP1;P1;durP2;ratioP2;P2;SDS_P1;SDS_P2;PMS_P1;PMS_P2;Temp;Humidity;BMP_temperature;BMP_pressure;BME280_temperature;BME280_humidity;BME280_pressure;Samples;Min_cycle;Max_cycle;Signal;HPM_P1;HPM_P2
2022/09/24 00:00:31;;;;;;;;;;;;;;;;;;1896788;28;7096;-66
2022/09/24 00:01:30;;;;;;;;;;;;;;;;;;1897108;28;7093;-64
2022/09/24 00:02:28;;;;;;;;;;;;;;;;;;1896648;28;7010;-67
2022/09/24 00:03:27;;;;;;;;;;;;;;;;;;1895880;28;7014;-68
2022/09/24 00:04:25;;;;;;;;;;;;;;;;;;1896005;28;7009;-68
2022/09/24 00:05:22;;;;;;;;;;;;;;;;;;1896583;28;7010;-66
2022/09/24 00:06:21;;;;;;;;;;;;;;;;;;1896450;28;7005;-67
2022/09/24 00:07:18;;;;;;;;;;;;;;;;;;1896803;28;7029;-67
2022/09/24 00:08:16;;;;;;;;;;;;;;;;;;1897205;28;7033;-67
2022/09/24 00:09:15;;;;;;;;;;;;;;;;;;1896341;28;7017;-66
2022/09/24 00:10:12;;;;;;;;;;;;;;;;;;1895194;28;7017;-65
2022/09/24 00:11:11;;;;;;;;;;;;;;;;;;1896690;28;7041;-68
2022/09/24 00:12:11;;;;;;;;;;;;;;;;;;1895485;28;7097;-66
2022/09/24 00:13:11;;;;;;;;;;;;;;;;;;1896540;28;7013;-64
2022/09/24 00:14:08;;;;;;;;;;;;;;;;;;1895306;28;7022;-67
2022/09/24 00:15:06;;;;;;;;;;;;;;;;;;1896635;28;7029;-68
2022/09/24 00:16:06;;;;;;;;;;;;;;;;;;1897016;28;7084;-65
2022/09/24 00:17:03;;;;;;;;;;;;;;;;;;1897166;28;7042;-67
2022/09/24 00:18:01;;;;;;;;;;;;;;;;;;1896266;28;8059;-66
2022/09/24 00:18:59;;;;;;;;;;;;;;;;;;1896637;28;7113;-68
2022/09/24 00:19:56;;;;;;;;;;;;;;;;;;1896386;28;7096;-67
2022/09/24 00:20:54;;;;;;;;;;;;;;;;;;1896469;28;7383;-71
2022/09/24 00:21:51;;;;;;;;;;;;;;;;;;1895733;28;7005;-68
2022/09/24 00:22:48;;;;;;;;;;;;;;;;;;1895954;28;7045;-68
2022/09/24 00:23:54;;;;;;;;;;;;;;;;;;1896436;28;7129;-70
2022/09/24 00:27:27;;;;;;;;;;;;;;;;;;1895208;28;7005;-66
2022/09/24 00:28:25;;;;;;;;;;;;;;;;;;1896725;28;7005;-65
2022/09/24 00:29:23;;;;;;;;;;;;;;;;;;1896419;28;7116;-66
2022/09/24 00:30:20;;;;;;;;;;;;;;;;;;1895878;28;7009;-66
2022/09/24 00:31:17;;;;;;;;;;;;;;;;;;1896654;28;7031;-66
2022/09/24 00:32:15;;;;;;;;;;;;;;;;;;1896549;28;7006;-66
2022/09/24 00:33:12;;;;;;;;;;;;;;;;;;1896495;28;7006;-66
2022/09/24 00:34:10;;;;;;;;;;;;;;;;;;1895306;28;7313;-71
2022/09/24 00:35:08;;;;;;;;;;;;;;;;;;1895829;28;7033;-66
2022/09/24 00:36:05;;;;;;;;;;;;;;;;;;1887781;28;7116;-66
2022/09/24 00:37:02;;;;;;;;;;;;;;;;;;1894820;28;8530;-67
2022/09/24 00:38:00;;;;;;;;;;;;;;;;;;1894648;28;8175;-66
2022/09/24 00:38:58;;;;;;;;;;;;;;;;;;1896615;28;7317;-68
2022/09/24 00:39:55;;;;;;;;;;;;;;;;;;1896047;28;7042;-66
2022/09/24 00:40:53;;;;;;;;;;;;;;;;;;1895202;28;7010;-66
2022/09/24 00:41:50;;;;;;;;;;;;;;;;;;1896684;28;7112;-66
2022/09/24 00:42:47;;;;;;;;;;;;;;;;;;1896818;28;7612;-65
2022/09/24 00:43:47;;;;;;;;;;;;;;;;;;1896360;28;7339;-68
2022/09/24 00:44:52;;;;;;;;;;;;;;;;;;1896710;28;7092;-67
2022/09/24 00:45:52;;;;;;;;;;;;;;;;;;1896649;28;7025;-64
2022/09/24 00:46:50;;;;;;;;;;;;;;;;;;1896043;28;7030;-68
2022/09/24 00:47:48;;;;;;;;;;;;;;;;;;1896031;28;7120;-68
2022/09/24 00:48:47;;;;;;;;;;;;;;;;;;1896449;28;7089;-67
2022/09/24 00:49:47;;;;;;;;;;;;;;;;;;1896262;28;7009;-66
2022/09/24 00:50:46;;;;;;;;;;;;;;;;;;1895865;28;7179;-68
2022/09/24 00:51:49;;;;;;;;;;;;;;;;;;1896137;28;7010;-66
2022/09/24 00:53:02;;;;;;;;;;;;;;;;;;1896310;28;7034;-67
2022/09/24 00:54:05;;;;;;;;;;;;;;;;;;1895662;28;7009;-68
2022/09/24 00:55:03;;;;;;;;;;;;;;;;;;1896549;28;7328;-68
2022/09/24 00:56:02;;;;;;;;;;;;;;;;;;1903060;28;7010;-67
2022/09/24 00:57:00;;;;;;;;;;;;;;;;;;1903309;28;7026;-65
2022/09/24 00:58:02;;;;;;;;;;;;;;;;;;1896356;28;7006;-69
2022/09/24 00:59:01;;;;;;;;;;;;;;;;;;1895455;28;7026;-67
2022/09/24 00:59:58;;;;;;;;;;;;;;;;;;1894054;28;8690;-69
2022/09/24 01:01:00;;;;;;;;;;;;;;;;;;1895988;28;7005;-67
2022/09/24 01:01:58;;;;;;;;;;;;;;;;;;1896126;28;7010;-67
2022/09/24 01:03:00;;;;;;;;;;;;;;;;;;1897075;28;7005;-66
2022/09/24 01:03:59;;;;;;;;;;;;;;;;;;1895356;28;7135;-67
2022/09/24 01:04:58;;;;;;;;;;;;;;;;;;1896666;28;7280;-66
2022/09/24 01:05:56;;;;;;;;;;;;;;;;;;1888009;28;7323;-67
2022/09/24 01:06:55;;;;;;;;;;;;;;;;;;1888005;28;7436;-67
2022/09/24 01:07:53;;;;;;;;;;;;;;;;;;1895375;28;7014;-69
2022/09/24 01:08:51;;;;;;;;;;;;;;;;;;1895995;28;7050;-65
2022/09/24 01:09:48;;;;;;;;;;;;;;;;;;1896364;28;7013;-68
2022/09/24 01:10:57;;;;;;;;;;;;;;;;;;1895809;28;7005;-66
2022/09/24 01:12:01;;;;;;;;;;;;;;;;;;1896172;28;7017;-67
2022/09/24 01:13:06;;;;;;;;;;;;;;;;;;1896238;28;7175;-64
2022/09/24 01:14:22;;;;;;;;;;;;;;;;;;1895942;28;7111;-65
2022/09/24 01:15:27;;;;;;;;;;;;;;;;;;1888098;28;7038;-65
2022/09/24 01:16:42;;;;;;;;;;;;;;;;;;1890997;28;8040;-65
2022/09/24 01:17:53;;;;;;;;;;;;;;;;;;1890287;28;7176;-68
2022/09/24 01:19:04;;;;;;;;;;;;;;;;;;1887611;28;7005;-66
2022/09/24 01:20:20;;;;;;;;;;;;;;;;;;1887915;28;8006;-69
2022/09/24 01:21:27;;;;;;;;;;;;;;;;;;1889987;28;7092;-68
2022/09/24 01:22:39;;;;;;;;;;;;;;;;;;1888675;28;7030;-67
2022/09/24 01:23:55;;;;;;;;;;;;;;;;;;1887095;28;7092;-65
2022/09/24 01:24:52;;;;;;;;;;;;;;;;;;1889087;28;7089;-66
2022/09/24 01:26:09;;;;;;;;;;;;;;;;;;1893126;28;7123;-67
2022/09/24 01:27:06;;;;;;;;;;;;;;;;;;1888716;28;8103;-65
2022/09/24 01:28:18;;;;;;;;;;;;;;;;;;1894071;28;7089;-67
2022/09/24 01:29:21;;;;;;;;;;;;;;;;;;1889007;28;8190;-68
2022/09/24 01:30:19;;;;;;;;;;;;;;;;;;1895947;28;7014;-66
2022/09/24 01:31:22;;;;;;;;;;;;;;;;;;1892145;28;7006;-66
2022/09/24 01:32:30;;;;;;;;;;;;;;;;;;1889137;28;7046;-64
2022/09/24 01:33:32;;;;;;;;;;;;;;;;;;1888854;28;7046;-69
2022/09/24 01:34:34;;;;;;;;;;;;;;;;;;1893434;28;7013;-66
2022/09/24 01:35:36;;;;;;;;;;;;;;;;;;1888608;28;9617;-65
2022/09/24 01:36:35;;;;;;;;;;;;;;;;;;1890988;28;7117;-66
2022/09/24 01:37:35;;;;;;;;;;;;;;;;;;1892041;28;7010;-68
2022/09/24 01:38:41;;;;;;;;;;;;;;;;;;1895963;28;7005;-66
2022/09/24 01:39:42;;;;;;;;;;;;;;;;;;1895956;28;7129;-66
2022/09/24 01:40:41;;;;;;;;;;;;;;;;;;1895809;28;7018;-66
2022/09/24 01:41:41;;;;;;;;;;;;;;;;;;1895695;28;7092;-68
2022/09/24 01:42:43;;;;;;;;;;;;;;;;;;1887891;28;8259;-65
2022/09/24 01:43:42;;;;;;;;;;;;;;;;;;1888621;28;7034;-67
2022/09/24 01:44:43;;;;;;;;;;;;;;;;;;1893617;28;7112;-67
2022/09/24 01:45:40;;;;;;;;;;;;;;;;;;1891538;28;7005;-69
2022/09/24 01:46:39;;;;;;;;;;;;;;;;;;1885116;28;7010;-69
2022/09/24 01:47:39;;;;;;;;;;;;;;;;;;1883040;28;7113;-65
2022/09/24 01:48:36;;;;;;;;;;;;;;;;;;1887107;28;7022;-68
2022/09/24 01:49:33;;;;;;;;;;;;;;;;;;1888828;28;7106;-66
2022/09/24 01:50:43;;;;;;;;;;;;;;;;;;1892186;28;7141;-65
2022/09/24 01:51:50;;;;;;;;;;;;;;;;;;1887277;28;8108;-66
2022/09/24 01:52:54;;;;;;;;;;;;;;;;;;1888876;28;7005;-65
2022/09/24 01:54:14;;;;;;;;;;;;;;;;;;1890918;28;7030;-67
2022/09/24 01:55:15;;;;;;;;;;;;;;;;;;1896287;28;7348;-67
2022/09/24 01:56:18;;;;;;;;;;;;;;;;;;1896019;28;7030;-66
2022/09/24 01:57:30;;;;;;;;;;;;;;;;;;1895327;28;7002;-67
2022/09/24 01:58:50;;;;;;;;;;;;;;;;;;1895834;28;7042;-66
2022/09/24 01:59:54;;;;;;;;;;;;;;;;;;1887046;28;7017;-67
2022/09/24 02:00:58;;;;;;;;;;;;;;;;;;1895709;28;7192;-69
2022/09/24 02:02:04;;;;;;;;;;;;;;;;;;1895876;28;7042;-68
2022/09/24 02:03:13;;;;;;;;;;;;;;;;;;1888206;28;7042;-68
2022/09/24 02:04:15;;;;;;;;;;;;;;;;;;1887058;28;7006;-68
2022/09/24 02:05:30;;;;;;;;;;;;;;;;;;1892438;28;7006;-65
2022/09/24 02:06:57;;;;;;;;;;;;;;;;;;1892659;28;7038;-66
2022/09/24 02:07:57;;;;;;;;;;;;;;;;;;1871842;28;7051;-66
2022/09/24 02:08:55;;;;;;;;;;;;;;;;;;1890818;28;7316;-66
2022/09/24 02:09:53;;;;;;;;;;;;;;;;;;1895050;28;7058;-67
2022/09/24 02:10:54;;;;;;;;;;;;;;;;;;1891627;28;8011;-67
2022/09/24 02:11:55;;;;;;;;;;;;;;;;;;1891671;28;7097;-67
2022/09/24 02:12:57;;;;;;;;;;;;;;;;;;1891058;28;7013;-68
2022/09/24 02:14:03;;;;;;;;;;;;;;;;;;1891675;28;7046;-69
2022/09/24 02:15:08;;;;;;;;;;;;;;;;;;1895935;28;7013;-66
2022/09/24 02:16:08;;;;;;;;;;;;;;;;;;1896656;28;7046;-67
2022/09/24 02:17:06;;;;;;;;;;;;;;;;;;1896805;28;7013;-66
2022/09/24 02:18:10;;;;;;;;;;;;;;;;;;1897043;28;7050;-66
2022/09/24 02:19:11;;;;;;;;;;;;;;;;;;1897524;28;7041;-70
2022/09/24 02:20:12;;;;;;;;;;;;;;;;;;1897659;28;7009;-66
2022/09/24 02:21:12;;;;;;;;;;;;;;;;;;1895334;28;8105;-68
2022/09/24 02:22:13;;;;;;;;;;;;;;;;;;1896726;28;7017;-67
2022/09/24 02:23:14;;;;;;;;;;;;;;;;;;1897304;28;7001;-65
2022/09/24 02:24:11;;;;;;;;;;;;;;;;;;1897175;28;7112;-67
2022/09/24 02:25:12;;;;;;;;;;;;;;;;;;1897329;28;7168;-68
2022/09/24 02:26:10;;;;;;;;;;;;;;;;;;1897632;28;7889;-68
2022/09/24 02:27:07;;;;;;;;;;;;;;;;;;1897305;28;7376;-66
2022/09/24 02:28:05;;;;;;;;;;;;;;;;;;1897545;28;7109;-68
2022/09/24 02:29:04;;;;;;;;;;;;;;;;;;1897740;28;8126;-68
2022/09/24 02:30:01;;;;;;;;;;;;;;;;;;1897729;28;7084;-67
2022/09/24 02:31:08;;;;;;;;;;;;;;;;;;1897532;28;7296;-68
2022/09/24 02:32:08;;;;;;;;;;;;;;;;;;1897569;28;7346;-68
2022/09/24 02:34:19;;;;;;;;;;;;;;;;;;1897549;28;7124;-67
2022/09/24 02:34:32;;;;;;;;;;;;;;;;;;1896897;28;7010;-68
2022/09/24 02:35:30;;;;;;;;;;;;;;;;;;1897490;28;7046;-67
2022/09/24 02:36:28;;;;;;;;;;;;;;;;;;1897227;28;8178;-63
2022/09/24 02:37:25;;;;;;;;;;;;;;;;;;1897209;28;7013;-68
2022/09/24 02:38:23;;;;;;;;;;;;;;;;;;1896912;28;7092;-67
2022/09/24 02:39:20;;;;;;;;;;;;;;;;;;1895979;28;7046;-67
2022/09/24 02:40:18;;;;;;;;;;;;;;;;;;1897088;28;7009;-66
2022/09/24 02:41:16;;;;;;;;;;;;;;;;;;1897703;28;7093;-68
2022/09/24 02:42:14;;;;;;;;;;;;;;;;;;1897087;28;7092;-67
2022/09/24 02:43:11;;;;;;;;;;;;;;;;;;1897354;28;7042;-66
2022/09/24 02:44:09;;;;;;;;;;;;;;;;;;1897243;28;7009;-68
2022/09/24 02:45:07;;;;;;;;;;;;;;;;;;1896622;28;7014;-69
2022/09/24 02:46:05;;;;;;;;;;;;;;;;;;1897267;28;8036;-68
2022/09/24 02:47:03;;;;;;;;;;;;;;;;;;1897297;28;7046;-69
2022/09/24 02:48:01;;;;;;;;;;;;;;;;;;1897147;28;7009;-69
2022/09/24 02:48:59;;;;;;;;;;;;;;;;;;1897481;28;7124;-67
2022/09/24 02:49:56;;;;;;;;;;;;;;;;;;1897035;28;7092;-68
2022/09/24 02:50:53;;;;;;;;;;;;;;;;;;1895658;28;7013;-66
2022/09/24 02:51:51;;;;;;;;;;;;;;;;;;1897380;28;7042;-67
2022/09/24 02:52:48;;;;;;;;;;;;;;;;;;1897087;28;7096;-67
2022/09/24 02:53:45;;;;;;;;;;;;;;;;;;1897396;28;7088;-70
2022/09/24 02:54:43;;;;;;;;;;;;;;;;;;1896931;28;7337;-69
2022/09/24 02:55:41;;;;;;;;;;;;;;;;;;1897320;28;7096;-68
2022/09/24 02:56:39;;;;;;;;;;;;;;;;;;1897285;28;7038;-69
2022/09/24 02:57:36;;;;;;;;;;;;;;;;;;1895968;28;7312;-70
2022/09/24 02:58:36;;;;;;;;;;;;;;;;;;1896038;28;8949;-68
2022/09/24 02:59:34;;;;;;;;;;;;;;;;;;1896364;28;7014;-66
2022/09/24 03:00:31;;;;;;;;;;;;;;;;;;1895816;28;7308;-68
2022/09/24 03:01:29;;;;;;;;;;;;;;;;;;1897024;28;7120;-65
2022/09/24 03:02:27;;;;;;;;;;;;;;;;;;1896425;28;7196;-66
2022/09/24 03:03:25;;;;;;;;;;;;;;;;;;1897167;28;7009;-68
2022/09/24 03:04:22;;;;;;;;;;;;;;;;;;1897076;28;7005;-68
2022/09/24 03:05:20;;;;;;;;;;;;;;;;;;1896283;28;7006;-69
2022/09/24 03:06:18;;;;;;;;;;;;;;;;;;1903295;28;7014;-71
2022/09/24 03:07:15;;;;;;;;;;;;;;;;;;1903150;28;7113;-69
2022/09/24 03:08:12;;;;;;;;;;;;;;;;;;1897692;28;7088;-67
2022/09/24 03:09:10;;;;;;;;;;;;;;;;;;1897550;28;8015;-68
2022/09/24 03:10:09;;;;;;;;;;;;;;;;;;1897265;28;7042;-68
2022/09/24 03:11:06;;;;;;;;;;;;;;;;;;1896371;28;7029;-66
2022/09/24 03:12:04;;;;;;;;;;;;;;;;;;1896622;28;7038;-67
2022/09/24 03:13:01;;;;;;;;;;;;;;;;;;1895835;28;7025;-69
2022/09/24 03:13:59;;;;;;;;;;;;;;;;;;1896560;28;7038;-69
2022/09/24 03:14:56;;;;;;;;;;;;;;;;;;1897054;28;7355;-68
2022/09/24 03:15:53;;;;;;;;;;;;;;;;;;1897247;28;7148;-68
2022/09/24 03:16:51;;;;;;;;;;;;;;;;;;1897538;28;7005;-68
2022/09/24 03:17:48;;;;;;;;;;;;;;;;;;1896816;28;7092;-69
2022/09/24 03:18:46;;;;;;;;;;;;;;;;;;1896066;28;7089;-66
2022/09/24 03:19:43;;;;;;;;;;;;;;;;;;1896131;28;7002;-68
2022/09/24 03:20:41;;;;;;;;;;;;;;;;;;1896774;28;7034;-69
2022/09/24 03:21:38;;;;;;;;;;;;;;;;;;1897210;28;7006;-68
2022/09/24 03:22:36;;;;;;;;;;;;;;;;;;1897093;28;7005;-70
2022/09/24 03:23:34;;;;;;;;;;;;;;;;;;1897236;28;7025;-69
2022/09/24 03:24:31;;;;;;;;;;;;;;;;;;1896702;28;7006;-66
2022/09/24 03:25:29;;;;;;;;;;;;;;;;;;1896429;28;7144;-66
2022/09/24 03:26:26;;;;;;;;;;;;;;;;;;1896925;28;7001;-70
2022/09/24 03:27:23;;;;;;;;;;;;;;;;;;1897006;28;7101;-68
2022/09/24 03:28:21;;;;;;;;;;;;;;;;;;1896927;28;7117;-66
2022/09/24 03:30:58;;;;;;;;;;;;;;;;;;1897217;28;7089;-68
2022/09/24 03:31:51;;;;;;;;;;;;;;;;;;1896762;28;7014;-68
2022/09/24 03:32:49;;;;;;;;;;;;;;;;;;1897130;28;7029;-70
2022/09/24 03:33:48;;;;;;;;;;;;;;;;;;1896918;28;7100;-72
2022/09/24 03:34:45;;;;;;;;;;;;;;;;;;1897164;28;7050;-66
2022/09/24 03:35:42;;;;;;;;;;;;;;;;;;1897059;28;7010;-69
2022/09/24 03:36:40;;;;;;;;;;;;;;;;;;1896616;28;7124;-69
2022/09/24 03:37:37;;;;;;;;;;;;;;;;;;1896875;28;7188;-68
2022/09/24 03:38:35;;;;;;;;;;;;;;;;;;1896887;28;7120;-67
2022/09/24 03:39:33;;;;;;;;;;;;;;;;;;1896796;28;7005;-67
2022/09/24 03:40:30;;;;;;;;;;;;;;;;;;1896977;28;7357;-69
2022/09/24 03:41:27;;;;;;;;;;;;;;;;;;1896324;28;7014;-68
2022/09/24 03:42:25;;;;;;;;;;;;;;;;;;1896979;28;7005;-70
2022/09/24 03:43:22;;;;;;;;;;;;;;;;;;1896702;28;7026;-68
2022/09/24 03:44:20;;;;;;;;;;;;;;;;;;1896625;28;7088;-67
2022/09/24 03:45:17;;;;;;;;;;;;;;;;;;1896190;28;7105;-67
2022/09/24 03:46:16;;;;;;;;;;;;;;;;;;1897008;28;7002;-66
2022/09/24 03:47:13;;;;;;;;;;;;;;;;;;1896914;28;7046;-67
2022/09/24 03:48:10;;;;;;;;;;;;;;;;;;1897281;28;7116;-69
2022/09/24 03:49:08;;;;;;;;;;;;;;;;;;1896651;28;7074;-71
2022/09/24 03:50:08;;;;;;;;;;;;;;;;;;1897064;28;7006;-67
2022/09/24 03:51:11;;;;;;;;;;;;;;;;;;1895130;28;7341;-67
2022/09/24 03:52:08;;;;;;;;;;;;;;;;;;1896735;28;7177;-68
2022/09/24 03:53:05;;;;;;;;;;;;;;;;;;1897959;28;7316;-69
2022/09/24 03:54:02;;;;;;;;;;;;;;;;;;1896775;28;7005;-69
2022/09/24 03:55:00;;;;;;;;;;;;;;;;;;1897375;28;7139;-67
2022/09/24 03:55:58;;;;;;;;;;;;;;;;;;1897245;28;7042;-66
2022/09/24 03:56:55;;;;;;;;;;;;;;;;;;1897034;28;7093;-67
2022/09/24 03:57:53;;;;;;;;;;;;;;;;;;1897046;28;7088;-69
2022/09/24 03:58:50;;;;;;;;;;;;;;;;;;1896555;28;7113;-69
2022/09/24 03:59:47;;;;;;;;;;;;;;;;;;1903801;28;7042;-71
2022/09/24 04:00:45;;;;;;;;;;;;;;;;;;1904071;28;7013;-71
2022/09/24 04:01:42;;;;;;;;;;;;;;;;;;1897902;28;7666;-67
2022/09/24 04:02:39;;;;;;;;;;;;;;;;;;1897185;28;7042;-66
2022/09/24 04:03:38;;;;;;;;;;;;;;;;;;1896015;28;7026;-68
2022/09/24 04:04:35;;;;;;;;;;;;;;;;;;1896046;28;7097;-68
2022/09/24 04:05:33;;;;;;;;;;;;;;;;;;1896738;28;7088;-68
2022/09/24 04:06:30;;;;;;;;;;;;;;;;;;1897095;28;7038;-67
2022/09/24 04:07:28;;;;;;;;;;;;;;;;;;1897041;28;8032;-67
2022/09/24 04:08:25;;;;;;;;;;;;;;;;;;1896400;28;7133;-69
2022/09/24 04:09:22;;;;;;;;;;;;;;;;;;1894885;28;7153;-66
2022/09/24 04:10:21;;;;;;;;;;;;;;;;;;1897181;28;7116;-70
2022/09/24 04:11:19;;;;;;;;;;;;;;;;;;1896809;28;7033;-69
2022/09/24 04:12:16;;;;;;;;;;;;;;;;;;1896821;28;7010;-68
2022/09/24 04:13:14;;;;;;;;;;;;;;;;;;1897168;28;7010;-68
2022/09/24 04:14:12;;;;;;;;;;;;;;;;;;1884584;28;7096;-69
2022/09/24 04:15:10;;;;;;;;;;;;;;;;;;1885337;28;7161;-69
2022/09/24 04:16:07;;;;;;;;;;;;;;;;;;1886043;28;9027;-69
2022/09/24 04:17:05;;;;;;;;;;;;;;;;;;1882563;28;7013;-71
2022/09/24 04:18:02;;;;;;;;;;;;;;;;;;1882091;28;7018;-68
2022/09/24 04:19:00;;;;;;;;;;;;;;;;;;1881903;28;7054;-66
2022/09/24 04:19:58;;;;;;;;;;;;;;;;;;1881394;28;8112;-67
2022/09/24 04:21:01;;;;;;;;;;;;;;;;;;1881836;28;7002;-67
2022/09/24 04:21:58;;;;;;;;;;;;;;;;;;1881996;28;7042;-67
2022/09/24 04:22:57;;;;;;;;;;;;;;;;;;1881980;28;8113;-66
2022/09/24 04:23:54;;;;;;;;;;;;;;;;;;1889016;28;7027;-66
2022/09/24 04:24:52;;;;;;;;;;;;;;;;;;1882248;28;7006;-66
2022/09/24 04:25:50;;;;;;;;;;;;;;;;;;1874232;28;7002;-67
2022/09/24 04:26:47;;;;;;;;;;;;;;;;;;1876817;28;7006;-67
2022/09/24 04:27:45;;;;;;;;;;;;;;;;;;1883134;28;7847;-69
2022/09/24 04:28:43;;;;;;;;;;;;;;;;;;1881800;28;8108;-69
2022/09/24 04:29:40;;;;;;;;;;;;;;;;;;1882263;28;7006;-68
2022/09/24 04:30:37;;;;;;;;;;;;;;;;;;1886856;28;7006;-64
2022/09/24 04:31:35;;;;;;;;;;;;;;;;;;1889301;28;7304;-68
2022/09/24 04:32:32;;;;;;;;;;;;;;;;;;1888727;28;8016;-69
2022/09/24 04:33:30;;;;;;;;;;;;;;;;;;1888898;28;7296;-66
2022/09/24 04:34:27;;;;;;;;;;;;;;;;;;1885214;28;7022;-69
2022/09/24 04:35:25;;;;;;;;;;;;;;;;;;1881848;28;7021;-69
2022/09/24 04:36:23;;;;;;;;;;;;;;;;;;1887961;28;7037;-68
2022/09/24 04:37:20;;;;;;;;;;;;;;;;;;1889505;28;7152;-67
2022/09/24 04:38:19;;;;;;;;;;;;;;;;;;1874265;28;7030;-68
2022/09/24 04:39:16;;;;;;;;;;;;;;;;;;1876200;28;8115;-68
2022/09/24 04:40:15;;;;;;;;;;;;;;;;;;1886736;28;7042;-67
2022/09/24 04:41:15;;;;;;;;;;;;;;;;;;1881742;28;7006;-69
2022/09/24 04:42:16;;;;;;;;;;;;;;;;;;1887812;28;7030;-66
2022/09/24 04:43:14;;;;;;;;;;;;;;;;;;1889151;28;7042;-68
2022/09/24 04:44:12;;;;;;;;;;;;;;;;;;1889371;28;7050;-69
2022/09/24 04:45:10;;;;;;;;;;;;;;;;;;1889096;28;7098;-66
2022/09/24 04:46:08;;;;;;;;;;;;;;;;;;1887894;28;7156;-68
2022/09/24 04:47:07;;;;;;;;;;;;;;;;;;1882140;28;7100;-70
2022/09/24 04:48:04;;;;;;;;;;;;;;;;;;1887773;28;7109;-65
2022/09/24 04:49:02;;;;;;;;;;;;;;;;;;1888880;28;7042;-69
2022/09/24 04:50:01;;;;;;;;;;;;;;;;;;1888879;28;7045;-69
2022/09/24 04:51:00;;;;;;;;;;;;;;;;;;1889402;28;7073;-67
2022/09/24 04:51:57;;;;;;;;;;;;;;;;;;1885717;28;7118;-68
2022/09/24 04:52:55;;;;;;;;;;;;;;;;;;1889546;28;7116;-67
2022/09/24 04:53:52;;;;;;;;;;;;;;;;;;1883261;28;7010;-69
2022/09/24 04:54:49;;;;;;;;;;;;;;;;;;1881940;28;7034;-70
2022/09/24 04:55:47;;;;;;;;;;;;;;;;;;1881811;28;7097;-67
2022/09/24 04:56:44;;;;;;;;;;;;;;;;;;1883022;28;7141;-68
2022/09/24 04:57:43;;;;;;;;;;;;;;;;;;1881944;28;7013;-70
2022/09/24 04:58:41;;;;;;;;;;;;;;;;;;1882306;28;7034;-66
2022/09/24 04:59:38;;;;;;;;;;;;;;;;;;1887473;28;7101;-67
2022/09/24 05:00:36;;;;;;;;;;;;;;;;;;1889116;28;7046;-68
2022/09/24 05:01:34;;;;;;;;;;;;;;;;;;1888470;28;7093;-69
2022/09/24 05:02:32;;;;;;;;;;;;;;;;;;1887908;28;7009;-69
2022/09/24 05:03:29;;;;;;;;;;;;;;;;;;1888977;28;7121;-68
2022/09/24 05:04:29;;;;;;;;;;;;;;;;;;1888580;28;7129;-71
2022/09/24 05:05:27;;;;;;;;;;;;;;;;;;1888709;28;7657;-70
2022/09/24 05:06:24;;;;;;;;;;;;;;;;;;1881910;28;7014;-68
2022/09/24 05:07:21;;;;;;;;;;;;;;;;;;1881042;28;7018;-69
2022/09/24 05:08:19;;;;;;;;;;;;;;;;;;1883116;28;7092;-71
2022/09/24 05:09:16;;;;;;;;;;;;;;;;;;1881799;28;7093;-66
2022/09/24 05:10:14;;;;;;;;;;;;;;;;;;1886874;28;7009;-67
2022/09/24 05:11:11;;;;;;;;;;;;;;;;;;1882275;28;7013;-69
2022/09/24 05:12:09;;;;;;;;;;;;;;;;;;1886157;28;7010;-69
2022/09/24 05:13:06;;;;;;;;;;;;;;;;;;1882278;28;7009;-69
2022/09/24 05:14:04;;;;;;;;;;;;;;;;;;1891491;28;7033;-69
2022/09/24 05:15:03;;;;;;;;;;;;;;;;;;1896623;28;7155;-68
2022/09/24 05:16:01;;;;;;;;;;;;;;;;;;1896300;28;7125;-66
2022/09/24 05:16:58;;;;;;;;;;;;;;;;;;1896015;28;7189;-68
2022/09/24 05:17:56;;;;;;;;;;;;;;;;;;1896408;28;7013;-66
2022/09/24 05:18:53;;;;;;;;;;;;;;;;;;1895082;28;7029;-70
2022/09/24 05:19:51;;;;;;;;;;;;;;;;;;1896810;28;7096;-68
2022/09/24 05:20:48;;;;;;;;;;;;;;;;;;1896754;28;7120;-66
2022/09/24 05:21:46;;;;;;;;;;;;;;;;;;1896742;28;8027;-70
2022/09/24 05:22:44;;;;;;;;;;;;;;;;;;1896359;28;7109;-67
2022/09/24 05:23:41;;;;;;;;;;;;;;;;;;1896524;28;7325;-67
2022/09/24 05:24:38;;;;;;;;;;;;;;;;;;1896655;28;7036;-68
2022/09/24 05:27:07;;;;;;;;;;;;;;;;;;1897415;28;7009;-66
2022/09/24 05:27:08;;;;;;;;;;;;;;;;;;1896754;28;7005;-69
2022/09/24 05:28:06;;;;;;;;;;;;;;;;;;1896898;28;7096;-67
2022/09/24 05:29:03;;;;;;;;;;;;;;;;;;1896371;28;7088;-70
2022/09/24 05:30:00;;;;;;;;;;;;;;;;;;1896044;28;7092;-67
2022/09/24 05:30:58;;;;;;;;;;;;;;;;;;1896198;28;7112;-69
2022/09/24 05:31:56;;;;;;;;;;;;;;;;;;1896487;28;7009;-68
2022/09/24 05:32:53;;;;;;;;;;;;;;;;;;1896494;28;7006;-68
2022/09/24 05:33:51;;;;;;;;;;;;;;;;;;1896751;28;7120;-67
2022/09/24 05:34:49;;;;;;;;;;;;;;;;;;1896032;28;7096;-67
2022/09/24 05:35:52;;;;;;;;;;;;;;;;;;1897442;28;7360;-67
2022/09/24 05:36:49;;;;;;;;;;;;;;;;;;1896482;28;7092;-69
2022/09/24 05:37:48;;;;;;;;;;;;;;;;;;1898150;28;7010;-68
2022/09/24 05:38:45;;;;;;;;;;;;;;;;;;1898659;28;7005;-69
2022/09/24 05:39:43;;;;;;;;;;;;;;;;;;1897108;28;7111;-67
2022/09/24 05:40:47;;;;;;;;;;;;;;;;;;1897993;28;7025;-65
2022/09/24 05:41:44;;;;;;;;;;;;;;;;;;1897894;28;7006;-68
2022/09/24 05:42:42;;;;;;;;;;;;;;;;;;1896600;28;8024;-68
2022/09/24 05:43:39;;;;;;;;;;;;;;;;;;1896084;28;7009;-67
2022/09/24 05:44:37;;;;;;;;;;;;;;;;;;1897180;28;7148;-65
2022/09/24 05:45:34;;;;;;;;;;;;;;;;;;1898475;28;8139;-65
2022/09/24 05:46:32;;;;;;;;;;;;;;;;;;1898351;28;7002;-68
2022/09/24 05:47:29;;;;;;;;;;;;;;;;;;1896691;28;8051;-69
2022/09/24 05:48:27;;;;;;;;;;;;;;;;;;1902678;28;7445;-66
2022/09/24 05:49:24;;;;;;;;;;;;;;;;;;1904358;28;7229;-68
2022/09/24 05:50:21;;;;;;;;;;;;;;;;;;1898447;28;7257;-67
2022/09/24 05:51:19;;;;;;;;;;;;;;;;;;1897777;28;7203;-67
2022/09/24 05:52:16;;;;;;;;;;;;;;;;;;1899048;28;7088;-68
2022/09/24 05:53:14;;;;;;;;;;;;;;;;;;1899614;28;7010;-67
2022/09/24 05:54:11;;;;;;;;;;;;;;;;;;1897613;28;7358;-68
2022/09/24 05:55:09;;;;;;;;;;;;;;;;;;1897044;28;7005;-66
2022/09/24 05:56:06;;;;;;;;;;;;;;;;;;1897902;28;7010;-67
2022/09/24 05:57:04;;;;;;;;;;;;;;;;;;1897203;28;7304;-68
2022/09/24 05:58:02;;;;;;;;;;;;;;;;;;1899132;28;7120;-69
2022/09/24 05:59:00;;;;;;;;;;;;;;;;;;1898152;28;7009;-68
2022/09/24 05:59:57;;;;;;;;;;;;;;;;;;1897424;28;7010;-69
2022/09/24 06:00:57;;;;;;;;;;;;;;;;;;1896624;28;7529;-66
2022/09/24 06:01:54;;;;;;;;;;;;;;;;;;1900933;28;7006;-68
2022/09/24 06:02:52;;;;;;;;;;;;;;;;;;1898567;28;7137;-68
2022/09/24 06:03:50;;;;;;;;;;;;;;;;;;1898882;28;7010;-69
2022/09/24 06:04:47;;;;;;;;;;;;;;;;;;1898708;28;7009;-67
2022/09/24 06:05:48;;;;;;;;;;;;;;;;;;1899101;28;7073;-68
2022/09/24 06:06:46;;;;;;;;;;;;;;;;;;1899026;28;7093;-66
2022/09/24 06:07:43;;;;;;;;;;;;;;;;;;1898079;28;7009;-67
2022/09/24 06:08:41;;;;;;;;;;;;;;;;;;1897636;28;7093;-66
2022/09/24 06:09:38;;;;;;;;;;;;;;;;;;1898676;28;8030;-65
2022/09/24 06:10:35;;;;;;;;;;;;;;;;;;1897691;28;7078;-66
2022/09/24 06:11:33;;;;;;;;;;;;;;;;;;1899327;28;7030;-65
2022/09/24 06:12:36;;;;;;;;;;;;;;;;;;1898978;28;7013;-69
2022/09/24 06:13:33;;;;;;;;;;;;;;;;;;1897550;28;8043;-70
2022/09/24 06:14:31;;;;;;;;;;;;;;;;;;1898360;28;7306;-66
2022/09/24 06:15:29;;;;;;;;;;;;;;;;;;1897510;28;7005;-64
2022/09/24 06:16:27;;;;;;;;;;;;;;;;;;1897709;28;7010;-66
2022/09/24 06:17:24;;;;;;;;;;;;;;;;;;1897640;28;8056;-65
2022/09/24 06:18:23;;;;;;;;;;;;;;;;;;1896993;28;7124;-67
2022/09/24 06:19:20;;;;;;;;;;;;;;;;;;1897287;28;8078;-66
2022/09/24 06:20:17;;;;;;;;;;;;;;;;;;1897599;28;7042;-65
2022/09/24 06:21:18;;;;;;;;;;;;;;;;;;1897311;28;7078;-65
2022/09/24 06:22:15;;;;;;;;;;;;;;;;;;1896190;28;7010;-70
2022/09/24 06:23:13;;;;;;;;;;;;;;;;;;1896895;28;7017;-68
2022/09/24 06:24:10;;;;;;;;;;;;;;;;;;1896838;28;7093;-68
2022/09/24 06:25:08;;;;;;;;;;;;;;;;;;1896909;28;7085;-67
2022/09/24 06:26:08;;;;;;;;;;;;;;;;;;1898305;28;7002;-68
2022/09/24 06:27:06;;;;;;;;;;;;;;;;;;1898155;28;8031;-67
2022/09/24 06:28:03;;;;;;;;;;;;;;;;;;1898060;28;7304;-66
2022/09/24 06:29:01;;;;;;;;;;;;;;;;;;1897620;28;8060;-68
2022/09/24 06:30:01;;;;;;;;;;;;;;;;;;1897070;28;7025;-67
2022/09/24 06:30:59;;;;;;;;;;;;;;;;;;1897412;28;7006;-66
2022/09/24 06:31:57;;;;;;;;;;;;;;;;;;1898015;28;7026;-69
2022/09/24 06:32:54;;;;;;;;;;;;;;;;;;1898029;28;7358;-66
2022/09/24 06:33:51;;;;;;;;;;;;;;;;;;1898009;28;7192;-69
2022/09/24 06:34:49;;;;;;;;;;;;;;;;;;1898239;28;7002;-66
2022/09/24 06:35:53;;;;;;;;;;;;;;;;;;1897323;28;7089;-70
2022/09/24 06:36:52;;;;;;;;;;;;;;;;;;1897527;28;7105;-67
2022/09/24 06:37:51;;;;;;;;;;;;;;;;;;1881928;28;7238;-69
2022/09/24 06:38:51;;;;;;;;;;;;;;;;;;1889333;28;7606;-67
2022/09/24 06:39:49;;;;;;;;;;;;;;;;;;1895333;28;7018;-64
2022/09/24 06:40:49;;;;;;;;;;;;;;;;;;1897657;28;8597;-67
2022/09/24 06:41:49;;;;;;;;;;;;;;;;;;1897595;28;7093;-68
2022/09/24 06:42:49;;;;;;;;;;;;;;;;;;1896638;28;7010;-69
2022/09/24 06:43:47;;;;;;;;;;;;;;;;;;1897342;28;7077;-66
2022/09/24 06:44:44;;;;;;;;;;;;;;;;;;1898495;28;7013;-69
2022/09/24 06:45:41;;;;;;;;;;;;;;;;;;1898055;28;7164;-69
2022/09/24 06:46:39;;;;;;;;;;;;;;;;;;1897663;28;7042;-69
2022/09/24 06:47:37;;;;;;;;;;;;;;;;;;1898019;28;7161;-67
2022/09/24 06:48:36;;;;;;;;;;;;;;;;;;1897847;28;7139;-67
2022/09/24 06:49:34;;;;;;;;;;;;;;;;;;1898175;28;7013;-69
2022/09/24 06:50:33;;;;;;;;;;;;;;;;;;1904370;28;7390;-66
2022/09/24 06:51:30;;;;;;;;;;;;;;;;;;1905039;28;8103;-70
2022/09/24 06:52:28;;;;;;;;;;;;;;;;;;1897555;28;7009;-68
2022/09/24 06:53:26;;;;;;;;;;;;;;;;;;1897564;28;7148;-68
2022/09/24 06:54:24;;;;;;;;;;;;;;;;;;1898492;28;7014;-69
2022/09/24 06:55:21;;;;;;;;;;;;;;;;;;1897645;28;7013;-67
2022/09/24 06:56:19;;;;;;;;;;;;;;;;;;1896868;28;7014;-69